createdAt,value
2022-12-12T00:01:27.461Z,3.30
2022-12-12T00:03:55.944Z,3.30
2022-12-12T00:06:25.244Z,3.60
2022-12-12T00:08:53.507Z,3.20
2022-12-12T00:11:23.202Z,3.50
2022-12-12T00:13:52.803Z,3.20
2022-12-12T00:16:21.523Z,3.40
2022-12-12T00:18:51.505Z,3.50
2022-12-12T00:21:22.274Z,3.60
2022-12-12T00:23:50.812Z,3.50
2022-12-12T00:26:22.077Z,3.50
2022-12-12T00:28:50.492Z,3.60
2022-12-12T00:31:19.018Z,3.60
2022-12-12T00:33:50.016Z,3.70
2022-12-12T00:36:21.777Z,3.80
2022-12-12T00:38:50.285Z,3.50
2022-12-12T00:41:18.431Z,3.60
2022-12-12T00:43:46.676Z,3.50
2022-12-12T00:46:15.606Z,3.60
2022-12-12T00:48:43.897Z,3.60
2022-12-12T00:51:17.506Z,3.60
2022-12-12T00:53:47.546Z,3.60
2022-12-12T00:56:16.543Z,3.50
2022-12-12T00:58:44.819Z,3.40
2022-12-12T01:01:15.957Z,3.20
2022-12-12T01:03:45.038Z,3.40
2022-12-12T01:06:13.633Z,3.70
2022-12-12T01:08:42.176Z,3.70
2022-12-12T01:11:12.951Z,3.70
2022-12-12T01:13:42.413Z,3.50
2022-12-12T01:16:11.331Z,3.60
2022-12-12T01:18:40.850Z,3.90
2022-12-12T01:21:11.126Z,3.60
2022-12-12T01:23:41.160Z,3.60
2022-12-12T01:26:12.383Z,3.60
2022-12-12T01:28:40.752Z,3.60
2022-12-12T01:31:10.374Z,3.60
2022-12-12T01:33:38.909Z,3.40
2022-12-12T01:36:07.984Z,3.40
2022-12-12T01:38:37.881Z,3.60
2022-12-12T01:41:06.265Z,3.70
2022-12-12T01:43:35.832Z,3.50
2022-12-12T01:46:33.803Z,3.50
2022-12-12T01:49:07.142Z,3.50
2022-12-12T01:51:35.599Z,3.70
2022-12-12T01:54:08.448Z,3.60
2022-12-12T01:56:38.795Z,3.60
2022-12-12T01:59:12.011Z,3.70
2022-12-12T02:01:41.218Z,3.60
2022-12-12T02:04:11.205Z,4.00
2022-12-12T02:06:41.525Z,3.80
2022-12-12T02:09:13.104Z,3.50
2022-12-12T02:11:45.560Z,3.60
2022-12-12T02:14:17.686Z,3.60
2022-12-12T02:17:19.132Z,3.60
2022-12-12T02:20:26.121Z,3.80
2022-12-12T02:23:20.255Z,3.70
2022-12-12T02:26:20.537Z,3.60
2022-12-12T02:29:16.804Z,3.60
2022-12-12T02:31:52.478Z,3.70
2022-12-12T02:34:30.934Z,3.60
2022-12-12T02:37:07.523Z,3.50
2022-12-12T02:39:44.928Z,3.30
2022-12-12T02:42:24.182Z,3.70
2022-12-12T02:44:58.037Z,3.80
2022-12-12T02:47:31.926Z,3.70
2022-12-12T02:50:08.088Z,4.10
2022-12-12T02:52:37.308Z,3.90
2022-12-12T02:55:06.142Z,3.90
2022-12-12T02:57:34.314Z,3.30
2022-12-12T03:00:05.514Z,3.60
2022-12-12T03:03:16.520Z,3.60
2022-12-12T03:06:09.003Z,3.70
2022-12-12T03:08:51.189Z,3.60
2022-12-12T03:11:31.205Z,3.60
2022-12-12T03:14:04.360Z,3.60
2022-12-12T03:16:38.643Z,3.60
2022-12-12T03:19:13.802Z,3.70
2022-12-12T03:21:47.609Z,3.50
2022-12-12T03:24:22.987Z,3.50
2022-12-12T03:26:57.047Z,3.50
2022-12-12T03:29:29.314Z,3.30
2022-12-12T03:32:04.453Z,3.30
2022-12-12T03:34:38.988Z,3.30
2022-12-12T03:37:11.862Z,3.40
2022-12-12T03:39:43.870Z,3.50
2022-12-12T03:42:17.009Z,3.40
2022-12-12T03:44:49.512Z,3.30
2022-12-12T03:47:22.847Z,3.40
2022-12-12T03:49:55.972Z,3.00
2022-12-12T03:52:29.973Z,3.20
2022-12-12T03:55:03.672Z,3.20
2022-12-12T03:57:36.125Z,3.40
2022-12-12T04:00:07.050Z,3.60
2022-12-12T04:02:46.040Z,3.20
2022-12-12T04:05:21.377Z,3.40
2022-12-12T04:07:54.787Z,3.40
2022-12-12T04:10:43.760Z,3.70
2022-12-12T04:13:16.770Z,3.50
2022-12-12T04:15:56.650Z,3.50
2022-12-12T04:18:35.124Z,3.70
2022-12-12T04:21:37.386Z,3.80
2022-12-12T04:24:17.018Z,3.50
2022-12-12T04:26:50.361Z,3.70
2022-12-12T04:29:32.416Z,3.60
2022-12-12T04:32:06.975Z,3.40
2022-12-12T04:34:40.451Z,3.30
2022-12-12T04:37:15.273Z,3.60
2022-12-12T04:39:45.673Z,3.70
2022-12-12T04:42:18.287Z,3.70
2022-12-12T04:44:48.396Z,3.80
2022-12-12T04:47:17.622Z,3.80
2022-12-12T04:49:47.825Z,3.90
2022-12-12T04:52:19.521Z,4.10
2022-12-12T04:54:51.994Z,4.00
2022-12-12T04:57:25.412Z,4.10
2022-12-12T04:59:53.648Z,3.80
2022-12-12T05:02:31.690Z,3.40
2022-12-12T05:05:03.850Z,3.50
2022-12-12T05:07:39.991Z,3.90
2022-12-12T05:10:11.876Z,3.80
2022-12-12T05:12:46.699Z,3.80
2022-12-12T05:15:16.707Z,3.70
2022-12-12T05:17:47.185Z,3.70
2022-12-12T05:20:16.359Z,3.60
2022-12-12T05:22:45.890Z,3.60
2022-12-12T05:25:14.755Z,3.60
2022-12-12T05:27:43.110Z,3.70
2022-12-12T05:30:12.428Z,3.90
2022-12-12T05:32:40.873Z,3.60
2022-12-12T05:35:10.646Z,3.50
2022-12-12T05:37:38.897Z,3.60
2022-12-12T05:40:13.877Z,3.40
2022-12-12T05:42:42.488Z,3.40
2022-12-12T05:45:12.509Z,3.40
2022-12-12T05:47:41.063Z,3.50
2022-12-12T05:50:10.406Z,3.60
2022-12-12T05:52:38.653Z,3.60
2022-12-12T05:55:07.672Z,3.90
2022-12-12T05:57:37.237Z,3.60
2022-12-12T06:00:06.936Z,3.80
2022-12-12T06:02:35.299Z,3.60
2022-12-12T06:05:03.508Z,3.50
2022-12-12T06:07:31.674Z,3.70
2022-12-12T06:09:59.774Z,3.90
2022-12-12T06:12:27.920Z,3.60
2022-12-12T06:14:57.522Z,3.80
2022-12-12T06:17:31.223Z,3.80
2022-12-12T06:20:01.507Z,3.80
2022-12-12T06:22:32.760Z,3.70
2022-12-12T06:25:00.888Z,3.70
2022-12-12T06:27:29.165Z,3.70
2022-12-12T06:29:58.832Z,3.40
2022-12-12T06:32:26.977Z,3.70
2022-12-12T06:34:55.085Z,3.30
2022-12-12T06:37:23.227Z,3.30
2022-12-12T06:39:51.492Z,3.50
2022-12-12T06:42:19.731Z,3.60
2022-12-12T06:44:47.958Z,3.40
2022-12-12T06:47:17.491Z,3.40
2022-12-12T06:49:45.587Z,3.20
2022-12-12T06:52:14.593Z,3.20
2022-12-12T06:54:42.786Z,3.50
2022-12-12T06:57:10.874Z,3.50
2022-12-12T06:59:39.232Z,3.40
2022-12-12T07:02:08.154Z,3.20
2022-12-12T07:04:40.106Z,3.40
2022-12-12T07:07:08.235Z,3.50
2022-12-12T07:09:36.670Z,3.60
2022-12-12T07:12:05.207Z,3.50
2022-12-12T07:14:33.310Z,3.40
2022-12-12T07:17:01.454Z,3.50
2022-12-12T07:19:29.598Z,3.40
2022-12-12T07:22:02.853Z,3.50
2022-12-12T07:24:34.189Z,3.70
2022-12-12T07:27:02.316Z,3.60
2022-12-12T07:29:30.518Z,3.50
2022-12-12T07:31:58.610Z,3.40
2022-12-12T07:34:26.844Z,3.20
2022-12-12T07:36:59.305Z,3.40
2022-12-12T07:39:32.398Z,3.30
2022-12-12T07:42:00.885Z,3.20
2022-12-12T07:44:29.034Z,3.20
2022-12-12T07:46:59.282Z,3.10
2022-12-12T07:49:29.217Z,3.40
2022-12-12T07:51:57.635Z,3.20
2022-12-12T07:54:25.783Z,3.30
2022-12-12T07:56:55.933Z,3.10
2022-12-12T07:59:24.130Z,3.00
2022-12-12T08:01:52.384Z,3.30
2022-12-12T08:04:23.809Z,3.20
2022-12-12T08:06:58.365Z,3.40
2022-12-12T08:09:30.080Z,3.20
2022-12-12T08:12:00.312Z,2.60
2022-12-12T08:14:28.717Z,3.10
2022-12-12T08:16:57.410Z,2.70
2022-12-12T08:19:25.540Z,3.00
2022-12-12T08:21:53.723Z,3.30
2022-12-12T08:24:21.924Z,3.50
2022-12-12T08:26:51.447Z,3.60
2022-12-12T08:29:21.245Z,3.70
2022-12-12T08:31:49.667Z,3.60
2022-12-12T08:34:19.089Z,3.40
2022-12-12T08:36:47.473Z,3.50
2022-12-12T08:39:17.093Z,3.40
2022-12-12T08:41:48.022Z,3.50
2022-12-12T08:44:17.520Z,3.50
2022-12-12T08:46:48.057Z,3.50
2022-12-12T08:49:17.846Z,3.40
2022-12-12T08:51:46.111Z,3.50
2022-12-12T08:54:14.548Z,3.40
2022-12-12T08:56:42.829Z,3.70
2022-12-12T08:59:11.001Z,3.90
2022-12-12T09:01:39.273Z,4.00
2022-12-12T09:04:08.964Z,3.70
2022-12-12T09:06:37.114Z,3.60
2022-12-12T09:09:05.417Z,3.50
2022-12-12T09:11:33.627Z,3.30
2022-12-12T09:14:01.794Z,3.30
2022-12-12T09:16:30.184Z,3.80
2022-12-12T09:18:58.534Z,3.80
2022-12-12T09:21:28.075Z,3.90
2022-12-12T09:23:56.217Z,3.80
2022-12-12T09:26:24.423Z,3.90
2022-12-12T09:28:52.582Z,4.00
2022-12-12T09:31:21.551Z,4.10
2022-12-12T09:33:50.479Z,4.00
2022-12-12T09:36:18.711Z,4.10
2022-12-12T09:38:48.147Z,4.50
2022-12-12T09:41:19.153Z,4.80
2022-12-12T09:43:55.460Z,4.40
2022-12-12T09:46:31.095Z,4.40
2022-12-12T09:49:08.825Z,5.00
2022-12-12T09:51:37.521Z,5.40
2022-12-12T09:54:07.423Z,5.70
2022-12-12T09:56:42.516Z,5.90
2022-12-12T09:59:16.780Z,6.00
2022-12-12T10:01:53.666Z,5.40
2022-12-12T10:04:28.772Z,5.20
2022-12-12T10:07:02.395Z,5.30
2022-12-12T10:09:45.796Z,5.20
2022-12-12T10:12:17.997Z,5.00
2022-12-12T10:14:49.597Z,4.90
2022-12-12T10:17:21.523Z,4.60
2022-12-12T10:19:52.677Z,4.50
2022-12-12T10:22:29.883Z,4.50
2022-12-12T10:25:04.459Z,4.20
2022-12-12T10:27:32.913Z,3.90
2022-12-12T10:30:15.286Z,4.30
2022-12-12T10:33:09.609Z,4.10
2022-12-12T10:35:44.411Z,4.50
2022-12-12T10:38:27.601Z,4.90
2022-12-12T10:41:05.319Z,5.10
2022-12-12T10:43:41.026Z,5.20
2022-12-12T10:46:26.003Z,4.70
2022-12-12T10:48:55.432Z,5.00
2022-12-12T10:51:27.569Z,4.80
2022-12-12T10:53:55.689Z,5.20
2022-12-12T10:56:28.965Z,5.40
2022-12-12T10:58:59.451Z,5.50
2022-12-12T11:04:28.427Z,5.70
2022-12-12T11:06:57.395Z,5.50
2022-12-12T11:09:27.465Z,5.60
2022-12-12T11:12:02.526Z,5.40
2022-12-12T11:14:34.855Z,5.30
2022-12-12T11:17:03.172Z,5.20
2022-12-12T11:19:38.783Z,4.80
2022-12-12T11:22:07.267Z,4.90
2022-12-12T11:24:44.988Z,5.00
2022-12-12T11:27:22.860Z,4.40
2022-12-12T11:29:53.933Z,4.30
2022-12-12T11:32:25.474Z,4.70
2022-12-12T11:34:56.364Z,4.50
2022-12-12T11:37:27.822Z,4.10
2022-12-12T11:39:58.137Z,4.40
2022-12-12T11:42:30.238Z,4.10
2022-12-12T11:45:01.303Z,4.20
2022-12-12T11:47:35.894Z,4.00
2022-12-12T11:50:19.239Z,4.10
2022-12-12T11:52:48.381Z,3.70
2022-12-12T11:55:19.004Z,4.10
2022-12-12T11:58:03.975Z,4.40
2022-12-12T12:00:41.051Z,4.80
2022-12-12T12:03:37.834Z,4.80
2022-12-12T12:06:30.468Z,4.60
2022-12-12T12:09:23.358Z,4.60
2022-12-12T12:12:01.426Z,4.80
2022-12-12T12:14:46.973Z,5.30
2022-12-12T12:17:27.038Z,5.50
2022-12-12T12:20:04.009Z,5.20
2022-12-12T12:22:45.283Z,5.10
2022-12-12T12:25:28.967Z,5.20
2022-12-12T12:28:17.517Z,4.20
2022-12-12T12:30:59.398Z,4.80
2022-12-12T12:33:38.904Z,4.70
2022-12-12T12:36:20.919Z,5.10
2022-12-12T12:38:58.021Z,5.90
2022-12-12T12:41:54.387Z,6.40
2022-12-12T12:44:36.739Z,6.30
2022-12-12T12:47:14.551Z,5.40
2022-12-12T12:49:47.324Z,5.00
2022-12-12T12:52:20.760Z,5.20
2022-12-12T12:54:50.059Z,6.00
2022-12-12T12:57:25.421Z,6.30
2022-12-12T12:59:58.715Z,6.20
2022-12-12T13:02:35.690Z,5.90
2022-12-12T13:05:08.491Z,6.00
2022-12-12T13:07:47.285Z,5.60
2022-12-12T13:10:22.223Z,5.50
2022-12-12T13:12:56.816Z,5.50
2022-12-12T13:15:29.200Z,5.80
2022-12-12T13:18:02.325Z,6.00
2022-12-12T13:20:34.786Z,6.50
2022-12-12T13:23:20.983Z,7.00
2022-12-12T13:25:57.756Z,7.20
2022-12-12T13:28:29.715Z,7.20
2022-12-12T13:31:36.989Z,6.60
2022-12-12T13:34:09.413Z,6.70
2022-12-12T13:36:40.511Z,6.20
2022-12-12T13:39:23.251Z,6.40
2022-12-12T13:41:56.803Z,6.80
2022-12-12T13:44:42.653Z,6.90
2022-12-12T13:47:31.413Z,7.20
2022-12-12T13:50:07.821Z,7.40
2022-12-12T13:52:41.012Z,7.40
2022-12-12T13:55:23.867Z,6.40
2022-12-12T13:58:17.384Z,6.50
2022-12-12T14:00:46.102Z,6.50
2022-12-12T14:03:27.900Z,6.60
2022-12-12T14:06:10.656Z,6.20
2022-12-12T14:08:48.183Z,6.10
2022-12-12T14:11:33.508Z,5.90
2022-12-12T14:14:09.780Z,6.10
2022-12-12T14:16:39.001Z,6.10
2022-12-12T14:19:19.092Z,6.50
2022-12-12T14:21:49.723Z,6.60
2022-12-12T14:24:47.953Z,6.60
2022-12-12T14:27:16.755Z,6.20
2022-12-12T14:29:45.700Z,6.20
2022-12-12T14:32:30.887Z,6.00
2022-12-12T14:35:10.571Z,6.00
2022-12-12T14:37:51.808Z,5.70
2022-12-12T14:40:22.966Z,6.10
2022-12-12T14:43:18.619Z,5.90
2022-12-12T14:45:55.203Z,5.70
2022-12-12T14:48:25.342Z,5.80
2022-12-12T14:51:01.025Z,5.80
2022-12-12T14:53:33.402Z,5.80
2022-12-12T14:56:04.392Z,5.70
2022-12-12T14:58:36.917Z,5.50
2022-12-12T15:01:07.063Z,5.50
2022-12-12T15:03:39.053Z,5.50
2022-12-12T15:06:30.200Z,5.20
2022-12-12T15:09:10.960Z,5.20
2022-12-12T15:11:39.457Z,5.40
2022-12-12T15:14:07.663Z,5.20
2022-12-12T15:16:47.959Z,5.10
2022-12-12T15:19:19.295Z,5.20
2022-12-12T15:21:48.749Z,5.10
2022-12-12T15:24:24.346Z,4.90
2022-12-12T15:26:55.182Z,4.80
2022-12-12T15:29:27.399Z,4.40
2022-12-12T15:32:01.955Z,4.50
2022-12-12T15:34:37.680Z,4.30
2022-12-12T15:37:27.548Z,4.10
2022-12-12T15:40:17.515Z,3.80
2022-12-12T15:42:48.962Z,4.40
2022-12-12T15:45:27.077Z,4.30
2022-12-12T15:47:56.491Z,4.20
2022-12-12T15:50:26.592Z,4.40
2022-12-12T15:53:08.131Z,4.00
2022-12-12T15:55:37.793Z,3.60
2022-12-12T15:58:06.085Z,4.10
2022-12-12T16:00:39.855Z,3.90
2022-12-12T16:03:22.774Z,3.80
2022-12-12T16:06:04.086Z,4.20
2022-12-12T16:08:38.709Z,4.10
2022-12-12T16:11:33.611Z,4.30
2022-12-12T16:14:01.929Z,4.10
2022-12-12T16:16:49.852Z,4.00
2022-12-12T16:19:37.174Z,3.90
2022-12-12T16:22:08.349Z,4.00
2022-12-12T16:24:47.437Z,4.10
2022-12-12T16:27:17.072Z,3.90
2022-12-12T16:29:46.039Z,3.90
2022-12-12T16:32:16.132Z,4.00
2022-12-12T16:34:44.929Z,3.70
2022-12-12T16:37:18.178Z,3.60
2022-12-12T16:39:46.486Z,3.50
2022-12-12T16:42:18.278Z,3.50
2022-12-12T16:44:46.829Z,3.30
2022-12-12T16:47:17.466Z,3.60
2022-12-12T16:49:46.202Z,3.60
2022-12-12T16:52:15.356Z,3.50
2022-12-12T16:54:51.122Z,3.30
2022-12-12T16:57:22.571Z,3.20
2022-12-12T16:59:53.478Z,3.40
2022-12-12T17:02:23.781Z,3.20
2022-12-12T17:04:52.745Z,3.10
2022-12-12T17:07:21.003Z,3.10
2022-12-12T17:09:49.241Z,3.20
2022-12-12T17:12:18.939Z,3.30
2022-12-12T17:14:48.445Z,3.10
2022-12-12T17:17:16.564Z,3.20
2022-12-12T17:19:44.677Z,3.00
2022-12-12T17:22:12.787Z,2.90
2022-12-12T17:24:41.027Z,3.00
2022-12-12T17:27:11.914Z,3.00
2022-12-12T17:29:40.347Z,2.90
2022-12-12T17:32:09.817Z,3.10
2022-12-12T17:34:38.338Z,3.00
2022-12-12T17:37:06.839Z,3.00
2022-12-12T17:39:35.166Z,2.70
2022-12-12T17:42:03.308Z,2.90
2022-12-12T17:44:31.794Z,2.70
2022-12-12T17:46:59.927Z,2.60
2022-12-12T17:49:29.419Z,2.80
2022-12-12T17:51:57.567Z,2.70
2022-12-12T17:54:25.726Z,2.80
2022-12-12T17:56:53.855Z,2.60
2022-12-12T17:59:22.034Z,2.50
2022-12-12T18:01:53.915Z,2.50
2022-12-12T18:04:27.667Z,2.70
2022-12-12T18:06:57.999Z,2.70
2022-12-12T18:09:26.498Z,2.60
2022-12-12T18:11:54.630Z,2.50
2022-12-12T18:14:22.789Z,2.30
2022-12-12T18:16:52.228Z,2.40
2022-12-12T18:19:20.961Z,2.50
2022-12-12T18:22:05.350Z,2.30
2022-12-12T18:24:34.954Z,2.60
2022-12-12T18:27:03.922Z,2.50
2022-12-12T18:29:32.260Z,2.50
2022-12-12T18:32:00.765Z,2.40
2022-12-12T18:34:28.922Z,2.50
2022-12-12T18:36:57.367Z,2.50
2022-12-12T18:39:26.684Z,2.30
2022-12-12T18:41:56.174Z,2.30
2022-12-12T18:44:24.724Z,2.40
2022-12-12T18:46:53.136Z,2.40
2022-12-12T18:49:21.496Z,2.30
2022-12-12T18:51:49.696Z,2.20
2022-12-12T18:54:21.134Z,2.20
2022-12-12T18:56:49.337Z,2.20
2022-12-12T18:59:18.897Z,2.40
2022-12-12T19:01:48.173Z,2.20
2022-12-12T19:04:22.846Z,2.00
2022-12-12T19:06:53.438Z,2.20
2022-12-12T19:09:22.147Z,2.10
2022-12-12T19:11:53.322Z,2.20
2022-12-12T19:14:40.425Z,2.10
2022-12-12T19:17:18.327Z,1.90
2022-12-12T19:19:47.995Z,1.90
2022-12-12T19:22:43.752Z,2.00
2022-12-12T19:25:04.523Z,1.70
2022-12-12T19:27:32.715Z,2.00
2022-12-12T19:30:02.428Z,1.90
2022-12-12T19:32:30.655Z,1.90
2022-12-12T19:34:59.777Z,2.00
2022-12-12T19:37:28.392Z,2.10
2022-12-12T19:39:56.979Z,1.80
2022-12-12T19:42:25.409Z,2.00
2022-12-12T19:44:53.990Z,2.00
2022-12-12T19:47:23.471Z,2.10
2022-12-12T19:49:51.667Z,2.00
2022-12-12T19:52:19.877Z,2.00
2022-12-12T19:54:48.032Z,2.10
2022-12-12T19:57:16.201Z,2.00
2022-12-12T19:59:44.402Z,1.90
2022-12-12T20:02:13.143Z,1.90
2022-12-12T20:04:42.647Z,2.10
2022-12-12T20:07:11.182Z,2.00
2022-12-12T20:09:39.602Z,2.10
2022-12-12T20:12:07.847Z,2.10
2022-12-12T20:14:37.740Z,2.10
2022-12-12T20:17:05.994Z,2.20
2022-12-12T20:19:34.162Z,2.00
2022-12-12T20:22:04.181Z,2.10
2022-12-12T20:24:34.589Z,1.90
2022-12-12T20:27:04.426Z,2.10
2022-12-12T20:29:32.671Z,1.90
2022-12-12T20:32:01.656Z,2.00
2022-12-12T20:34:32.134Z,1.90
2022-12-12T20:37:00.580Z,1.60
2022-12-12T20:39:30.103Z,1.80
2022-12-12T20:41:58.290Z,1.70
2022-12-12T20:44:29.013Z,2.00
2022-12-12T20:47:00.333Z,1.90
2022-12-12T20:49:30.673Z,2.00
2022-12-12T20:52:00.121Z,1.90
2022-12-12T20:54:31.249Z,1.90
2022-12-12T20:57:01.461Z,1.80
2022-12-12T20:59:31.223Z,1.80
2022-12-12T21:01:59.770Z,1.70
2022-12-12T21:04:28.794Z,1.80
2022-12-12T21:06:56.998Z,1.90
2022-12-12T21:09:26.659Z,1.70
2022-12-12T21:11:58.644Z,1.70
2022-12-12T21:14:28.062Z,1.80
2022-12-12T21:16:56.720Z,1.70
2022-12-12T21:19:26.015Z,1.60
2022-12-12T21:21:56.283Z,1.60
2022-12-12T21:24:25.511Z,1.80
2022-12-12T21:26:56.906Z,1.60
2022-12-12T21:29:31.259Z,1.40
2022-12-12T21:32:01.063Z,1.70
2022-12-12T21:34:29.476Z,1.60
2022-12-12T21:36:59.269Z,1.70
2022-12-12T21:39:29.831Z,1.50
2022-12-12T21:41:58.060Z,1.50
2022-12-12T21:44:34.495Z,1.70
2022-12-12T21:47:03.992Z,1.50
2022-12-12T21:49:33.901Z,1.70
2022-12-12T21:52:05.011Z,1.50
2022-12-12T21:54:33.862Z,1.70
2022-12-12T21:57:02.871Z,1.60
2022-12-12T21:59:32.771Z,1.70
2022-12-12T22:02:04.331Z,1.50
2022-12-12T22:04:32.773Z,1.50
2022-12-12T22:07:01.142Z,1.40
2022-12-12T22:09:29.455Z,1.40
2022-12-12T22:12:04.332Z,1.60
2022-12-12T22:14:35.976Z,1.40
2022-12-12T22:17:05.682Z,1.30
2022-12-12T22:19:34.624Z,1.40
2022-12-12T22:22:02.876Z,1.30
2022-12-12T22:24:31.127Z,1.50
2022-12-12T22:26:59.302Z,1.50
2022-12-12T22:29:27.517Z,1.70
2022-12-12T22:31:57.310Z,1.20
2022-12-12T22:34:28.876Z,1.40
2022-12-12T22:36:57.116Z,1.30
2022-12-12T22:39:26.993Z,1.20
2022-12-12T22:41:56.040Z,1.10
2022-12-12T22:44:25.888Z,1.40
2022-12-12T22:46:55.677Z,1.20
2022-12-12T22:49:27.020Z,1.30
2022-12-12T22:51:55.879Z,1.20
2022-12-12T22:54:24.175Z,1.10
2022-12-12T22:56:52.289Z,1.00
2022-12-12T22:59:20.434Z,1.10
2022-12-12T23:01:48.542Z,1.20
2022-12-12T23:04:16.747Z,1.00
2022-12-12T23:06:46.370Z,0.90
2022-12-12T23:09:16.644Z,1.10
2022-12-12T23:11:45.885Z,1.00
2022-12-12T23:14:16.522Z,0.90
2022-12-12T23:16:45.340Z,0.80
2022-12-12T23:19:16.217Z,0.90
2022-12-12T23:21:46.095Z,0.80
2022-12-12T23:24:14.783Z,0.70
2022-12-12T23:26:43.253Z,0.80
2022-12-12T23:29:16.315Z,0.90
2022-12-12T23:31:45.173Z,1.00
2022-12-12T23:34:17.650Z,0.90
2022-12-12T23:36:47.763Z,1.00
2022-12-12T23:39:16.308Z,0.90
2022-12-12T23:41:45.229Z,0.90
2022-12-12T23:44:15.479Z,1.00
2022-12-12T23:46:44.760Z,0.90
2022-12-12T23:49:16.644Z,1.00
2022-12-12T23:51:48.116Z,0.80
2022-12-12T23:54:18.438Z,1.00
2022-12-12T23:56:47.579Z,0.80
2022-12-12T23:59:19.566Z,0.70
